Time;durP1;ratioP1;P1;durP2;ratioP2;P2;SDS_P1;SDS_P2;PMS_P1;PMS_P2;Temp;Humidity;BMP_temperature;BMP_pressure;BME280_temperature;BME280_humidity;BME280_pressure;Samples;Min_cycle;Max_cycle;Signal;HPM_P1;HPM_P2
2020/12/23 00:02:11;;;;;;;1.37;0.90;;;9.40;96.30;;;;;;4975290;28;20273;-76
2020/12/23 00:04:36;;;;;;;2.60;1.27;;;9.40;96.30;;;;;;4975511;28;20639;-77
2020/12/23 00:07:06;;;;;;;2.30;1.30;;;9.40;96.30;;;;;;4975469;28;20261;-75
2020/12/23 00:09:31;;;;;;;2.77;1.27;;;9.40;96.30;;;;;;4975414;28;20236;-76
2020/12/23 00:11:57;;;;;;;2.23;1.20;;;9.30;96.30;;;;;;4975153;28;20934;-76
2020/12/23 00:14:22;;;;;;;2.93;1.30;;;9.40;96.30;;;;;;4975474;28;20178;-76
2020/12/23 00:16:48;;;;;;;1.90;1.07;;;9.30;96.30;;;;;;4974935;28;20174;-76
2020/12/23 00:19:14;;;;;;;1.40;1.10;;;9.30;96.30;;;;;;4975245;28;20182;-76
2020/12/23 00:21:39;;;;;;;2.30;1.30;;;9.30;96.30;;;;;;4975072;28;20237;-76
2020/12/23 00:24:05;;;;;;;3.70;1.40;;;9.30;96.30;;;;;;4973939;28;20548;-77
2020/12/23 00:26:30;;;;;;;3.90;1.40;;;9.30;96.30;;;;;;4975183;28;20178;-76
2020/12/23 00:28:56;;;;;;;4.40;1.87;;;9.30;96.30;;;;;;4975324;28;20710;-76
2020/12/23 00:31:21;;;;;;;1.40;1.10;;;9.40;96.30;;;;;;4974947;28;20277;-77
2020/12/23 00:33:47;;;;;;;1.53;1.37;;;9.30;96.30;;;;;;4974703;28;20276;-76
2020/12/23 00:36:13;;;;;;;2.70;1.40;;;9.30;96.30;;;;;;4975277;28;20170;-76
2020/12/23 00:38:39;;;;;;;2.53;1.20;;;9.30;96.30;;;;;;4973695;28;20178;-76
2020/12/23 00:41:14;;;;;;;1.30;1.17;;;9.30;96.30;;;;;;4982530;28;20488;-75
2020/12/23 00:43:39;;;;;;;2.33;1.20;;;9.20;96.30;;;;;;4992817;28;20172;-73
2020/12/23 00:46:11;;;;;;;1.53;1.00;;;9.30;96.30;;;;;;4994181;28;20495;-72
2020/12/23 00:48:36;;;;;;;1.77;1.30;;;9.20;96.30;;;;;;4994028;28;20572;-72
2020/12/23 00:51:13;;;;;;;1.20;1.10;;;9.20;96.30;;;;;;4994068;28;20512;-72
2020/12/23 00:53:39;;;;;;;1.87;1.20;;;9.20;96.30;;;;;;4993803;28;20193;-72
2020/12/23 00:56:05;;;;;;;1.10;1.00;;;9.10;96.30;;;;;;4993994;28;20437;-72
2020/12/23 00:58:30;;;;;;;1.10;1.00;;;9.10;96.30;;;;;;4993893;28;20933;-72
2020/12/23 05:00:33;;;;;;;1.23;0.80;;;7.90;96.30;;;;;;5936289;23;20373;-77
2020/12/23 05:02:58;;;;;;;1.90;0.70;;;7.90;96.30;;;;;;4973661;28;20425;-77
2020/12/23 05:05:23;;;;;;;2.57;0.80;;;7.90;96.30;;;;;;4974233;28;20187;-77
2020/12/23 05:07:49;;;;;;;1.80;0.80;;;8.00;96.30;;;;;;4974191;28;20646;-77
2020/12/23 05:10:15;;;;;;;1.40;0.60;;;8.00;96.30;;;;;;4974424;28;20204;-76
2020/12/23 05:12:41;;;;;;;1.97;0.93;;;8.00;96.30;;;;;;4973980;28;20241;-77
2020/12/23 05:15:07;;;;;;;1.03;0.60;;;8.00;96.30;;;;;;4974276;28;20170;-78
2020/12/23 05:17:33;;;;;;;1.40;0.70;;;8.00;96.30;;;;;;4974280;28;20569;-77
2020/12/23 05:19:58;;;;;;;2.10;0.70;;;8.00;96.30;;;;;;4974214;28;20441;-76
2020/12/23 05:22:27;;;;;;;3.50;2.17;;;8.00;96.30;;;;;;4973403;28;20223;-76
2020/12/23 05:24:54;;;;;;;6.03;4.37;;;7.90;96.30;;;;;;4972884;28;20185;-76
2020/12/23 05:27:21;;;;;;;4.10;2.37;;;7.90;96.30;;;;;;4972738;28;20421;-76
2020/12/23 05:29:48;;;;;;;1.77;1.10;;;7.90;96.30;;;;;;4973982;28;20417;-76
2020/12/23 05:32:13;;;;;;;1.10;0.90;;;7.90;96.30;;;;;;4973192;28;20433;-76
2020/12/23 05:34:41;;;;;;;3.70;1.50;;;7.80;96.30;;;;;;4973899;28;20410;-76
2020/12/23 05:37:07;;;;;;;1.37;0.80;;;7.80;96.30;;;;;;4973881;28;20178;-76
2020/12/23 05:39:33;;;;;;;2.27;0.93;;;7.80;96.30;;;;;;4973867;28;20414;-76
2020/12/23 05:41:59;;;;;;;1.97;1.40;;;7.80;96.30;;;;;;4987895;28;20232;-77
2020/12/23 05:44:25;;;;;;;4.27;2.00;;;7.80;96.30;;;;;;4993170;28;20264;-76
2020/12/23 05:46:51;;;;;;;2.17;1.70;;;7.80;96.30;;;;;;4993221;28;20513;-76
2020/12/23 05:49:18;;;;;;;3.20;1.93;;;7.90;96.30;;;;;;4993127;28;20174;-76
2020/12/23 05:51:44;;;;;;;2.00;1.40;;;7.80;96.30;;;;;;4982026;28;20445;-76
2020/12/23 05:54:11;;;;;;;4.80;1.90;;;7.80;96.30;;;;;;4961518;28;20473;-76
2020/12/23 05:56:38;;;;;;;3.83;1.80;;;7.80;96.30;;;;;;4957266;28;20450;-76
2020/12/23 05:59:04;;;;;;;9.73;3.00;;;7.70;96.30;;;;;;4956807;28;20422;-77
2020/12/23 06:01:38;;;;;;;4.30;1.50;;;7.70;96.30;;;;;;4953901;29;20453;-76
2020/12/23 06:04:11;;;;;;;3.43;1.57;;;7.60;96.30;;;;;;4961922;28;20425;-75
2020/12/23 06:06:37;;;;;;;2.97;1.60;;;7.60;96.30;;;;;;4957728;28;20412;-76
2020/12/23 06:09:07;;;;;;;5.07;1.60;;;7.60;96.30;;;;;;4954965;28;20497;-76
2020/12/23 06:11:37;;;;;;;2.70;1.17;;;7.60;96.30;;;;;;4953971;28;20201;-75
2020/12/23 06:14:18;;;;;;;1.67;1.00;;;7.60;96.30;;;;;;4953577;28;20450;-75
2020/12/23 06:16:45;;;;;;;4.13;1.20;;;7.60;96.30;;;;;;4952949;29;20415;-76
2020/12/23 06:19:25;;;;;;;1.80;1.47;;;7.60;96.30;;;;;;4952802;28;20989;-76
2020/12/23 06:21:53;;;;;;;1.70;1.10;;;7.50;96.30;;;;;;4953825;28;20958;-75
2020/12/23 06:24:19;;;;;;;1.40;1.00;;;7.50;96.30;;;;;;4954001;28;20414;-76
2020/12/23 06:26:47;;;;;;;1.70;1.00;;;7.50;96.30;;;;;;4956416;28;20432;-75
2020/12/23 06:29:21;;;;;;;1.93;1.10;;;7.40;96.30;;;;;;4955998;28;20411;-75
2020/12/23 06:32:01;;;;;;;4.00;2.93;;;7.40;96.30;;;;;;4960367;28;20436;-75
2020/12/23 06:34:35;;;;;;;4.80;1.80;;;7.40;96.30;;;;;;4964411;28;20461;-75
2020/12/23 06:37:14;;;;;;;3.73;1.30;;;7.40;96.30;;;;;;4958725;28;20411;-76
2020/12/23 06:39:41;;;;;;;5.97;1.47;;;7.40;96.30;;;;;;4965996;28;20399;-75
2020/12/23 06:42:07;;;;;;;3.63;1.50;;;7.40;96.30;;;;;;4964631;28;20443;-75
2020/12/23 06:44:44;;;;;;;4.13;2.10;;;7.40;96.30;;;;;;4963473;28;20500;-75
2020/12/23 06:47:15;;;;;;;3.63;1.40;;;7.40;96.30;;;;;;4969097;28;20178;-76
2020/12/23 06:49:52;;;;;;;2.20;1.00;;;7.50;96.30;;;;;;4958557;28;20913;-75
2020/12/23 06:52:29;;;;;;;4.27;3.20;;;7.50;96.30;;;;;;4967966;28;20979;-75
2020/12/23 06:55:04;;;;;;;6.33;3.30;;;7.50;96.30;;;;;;4954410;28;20517;-76
2020/12/23 06:57:35;;;;;;;4.40;1.50;;;7.50;96.30;;;;;;4969743;28;20541;-74
2020/12/23 07:00:20;;;;;;;2.63;1.10;;;7.50;96.30;;;;;;4965160;28;20426;-75
2020/12/23 07:02:48;;;;;;;1.93;1.20;;;7.50;96.30;;;;;;4956553;28;20940;-75
2020/12/23 07:05:23;;;;;;;2.53;1.80;;;7.50;96.30;;;;;;4961644;28;20421;-75
2020/12/23 07:07:52;;;;;;;5.90;1.10;;;7.50;96.30;;;;;;4959467;28;20436;-75
2020/12/23 07:10:20;;;;;;;2.83;1.20;;;7.50;96.30;;;;;;4967204;28;20413;-75
2020/12/23 07:12:48;;;;;;;1.27;0.80;;;7.60;96.30;;;;;;4958690;28;20454;-75
2020/12/23 07:15:20;;;;;;;2.50;0.90;;;7.60;96.30;;;;;;4961284;28;20813;-75
2020/12/23 07:17:46;;;;;;;1.67;0.90;;;7.70;96.30;;;;;;4965354;28;20402;-74
2020/12/23 07:20:15;;;;;;;2.40;0.83;;;7.70;96.30;;;;;;4967558;28;20472;-74
2020/12/23 07:22:47;;;;;;;1.83;0.87;;;7.80;96.30;;;;;;4952697;28;20422;-75
2020/12/23 07:25:26;;;;;;;1.30;0.90;;;7.80;96.30;;;;;;4969149;28;20452;-75
2020/12/23 07:27:57;;;;;;;1.83;0.70;;;7.80;96.30;;;;;;4965938;28;20405;-75
2020/12/23 07:30:23;;;;;;;2.53;0.80;;;7.90;96.30;;;;;;4959474;28;20427;-74
2020/12/23 07:33:05;;;;;;;1.43;0.80;;;7.90;96.30;;;;;;4966738;28;20479;-74
2020/12/23 07:35:31;;;;;;;3.57;0.97;;;8.00;96.30;;;;;;4962779;28;20419;-74
2020/12/23 07:38:02;;;;;;;1.93;0.90;;;8.00;96.30;;;;;;4960611;28;20409;-75
2020/12/23 07:40:29;;;;;;;1.60;0.90;;;8.00;96.30;;;;;;4973112;28;20467;-75
2020/12/23 07:42:58;;;;;;;4.13;1.20;;;8.00;96.30;;;;;;4966338;28;20421;-75
2020/12/23 07:45:26;;;;;;;1.80;1.00;;;8.00;96.30;;;;;;4965118;28;20504;-74
2020/12/23 07:48:03;;;;;;;3.43;1.13;;;8.00;96.30;;;;;;4967063;28;20429;-76
2020/12/23 07:50:32;;;;;;;4.10;1.00;;;8.10;96.30;;;;;;4966931;28;20471;-76
2020/12/23 07:53:10;;;;;;;3.03;1.00;;;8.10;96.30;;;;;;4958362;28;20457;-75
2020/12/23 07:55:36;;;;;;;4.87;1.20;;;8.20;96.30;;;;;;4963851;28;20425;-75
2020/12/23 07:58:01;;;;;;;2.03;0.50;;;8.20;96.30;;;;;;4964222;28;20783;-76
2020/12/23 08:00:27;;;;;;;1.83;1.00;;;8.20;96.30;;;;;;4956116;29;20215;-76
2020/12/23 08:02:53;;;;;;;1.27;0.73;;;8.30;96.30;;;;;;4954890;29;20186;-76
2020/12/23 08:05:19;;;;;;;2.07;1.10;;;8.40;96.30;;;;;;4956318;28;20584;-76
2020/12/23 08:07:45;;;;;;;1.20;0.90;;;8.40;96.30;;;;;;4956246;28;20425;-76
2020/12/23 08:10:18;;;;;;;2.10;0.80;;;8.50;96.30;;;;;;4956141;28;20182;-76
2020/12/23 08:13:03;;;;;;;2.40;0.80;;;8.50;96.30;;;;;;4955905;28;20206;-76
2020/12/23 08:15:29;;;;;;;1.40;0.70;;;8.60;96.30;;;;;;4956150;29;20415;-76
2020/12/23 08:18:06;;;;;;;1.97;0.80;;;8.60;96.30;;;;;;4955957;29;20465;-76
2020/12/23 08:20:33;;;;;;;1.67;0.80;;;8.60;96.30;;;;;;4956023;28;20429;-76
2020/12/23 08:22:59;;;;;;;3.03;1.00;;;8.60;96.30;;;;;;4965437;28;20406;-76
2020/12/23 08:25:26;;;;;;;2.90;1.67;;;8.70;96.30;;;;;;4959095;28;20418;-75
2020/12/23 08:27:54;;;;;;;3.47;2.30;;;8.70;96.30;;;;;;4960612;28;20418;-75
2020/12/23 08:30:27;;;;;;;3.33;2.20;;;8.70;96.30;;;;;;4963355;28;20410;-75
2020/12/23 08:32:58;;;;;;;2.90;2.43;;;8.70;96.30;;;;;;4955227;28;20982;-76
2020/12/23 08:35:29;;;;;;;11.40;3.10;;;8.60;96.30;;;;;;4955741;28;20407;-77
2020/12/23 08:37:55;;;;;;;3.63;2.10;;;8.50;96.30;;;;;;4955362;28;20407;-76
2020/12/23 08:40:20;;;;;;;6.27;3.83;;;8.50;96.30;;;;;;4958915;28;20847;-76
2020/12/23 08:42:54;;;;;;;6.77;4.50;;;8.50;96.30;;;;;;4970163;28;20181;-76
2020/12/23 08:45:30;;;;;;;8.27;4.70;;;8.50;96.30;;;;;;4961073;28;20179;-76
2020/12/23 08:47:57;;;;;;;11.90;7.30;;;8.60;96.30;;;;;;4955426;28;20461;-76
2020/12/23 08:50:27;;;;;;;8.77;5.80;;;8.60;96.30;;;;;;4962993;28;20967;-76
2020/12/23 08:52:53;;;;;;;14.17;10.93;;;8.60;96.30;;;;;;4961000;28;20457;-75
2020/12/23 08:55:23;;;;;;;6.40;4.50;;;8.70;96.30;;;;;;4965695;28;20422;-76
2020/12/23 08:57:50;;;;;;;15.20;12.10;;;8.80;96.30;;;;;;4969155;28;20488;-76
2020/12/23 09:00:21;;;;;;;7.63;6.80;;;8.90;96.30;;;;;;4973362;28;20831;-77
2020/12/23 09:02:48;;;;;;;4.03;2.80;;;9.10;96.30;;;;;;4973868;28;20394;-76
2020/12/23 09:05:27;;;;;;;7.10;3.50;;;9.30;96.30;;;;;;4974247;28;20414;-76
2020/12/23 09:08:11;;;;;;;4.00;2.50;;;9.40;96.30;;;;;;4973169;28;20925;-77
2020/12/23 09:10:40;;;;;;;5.80;4.13;;;9.60;96.30;;;;;;4974274;28;20524;-77
2020/12/23 09:13:11;;;;;;;6.43;5.27;;;9.80;96.30;;;;;;4973801;28;20815;-77
2020/12/23 09:15:37;;;;;;;5.03;3.70;;;9.90;96.30;;;;;;4989214;28;20413;-76
2020/12/23 09:18:13;;;;;;;10.83;6.17;;;10.10;96.30;;;;;;4974139;28;20414;-76
2020/12/23 09:20:40;;;;;;;10.20;5.10;;;10.20;96.30;;;;;;4974074;28;20972;-76
2020/12/23 09:23:08;;;;;;;9.53;4.63;;;10.20;96.30;;;;;;4968076;28;20953;-76
2020/12/23 09:25:34;;;;;;;5.93;3.00;;;10.10;96.30;;;;;;4970444;28;20840;-77
2020/12/23 09:28:08;;;;;;;7.27;3.40;;;10.00;96.30;;;;;;4973982;28;20414;-76
2020/12/23 09:30:48;;;;;;;8.20;3.90;;;10.00;96.30;;;;;;4957974;28;20442;-76
2020/12/23 09:33:21;;;;;;;5.10;3.07;;;10.00;96.30;;;;;;4953875;29;20492;-76
2020/12/23 09:35:50;;;;;;;5.33;2.73;;;9.80;96.30;;;;;;4953371;29;20521;-76
2020/12/23 09:38:30;;;;;;;6.77;2.90;;;9.80;96.30;;;;;;4954662;29;20403;-76
2020/12/23 09:40:58;;;;;;;4.77;3.43;;;9.80;96.30;;;;;;4967430;28;20494;-75
2020/12/23 09:43:29;;;;;;;6.03;3.40;;;9.80;96.30;;;;;;4992962;28;20421;-76
2020/12/23 09:46:00;;;;;;;9.80;3.80;;;9.80;96.30;;;;;;4993087;28;20626;-76
2020/12/23 09:48:27;;;;;;;10.33;4.43;;;9.80;96.30;;;;;;4992316;28;20417;-76
2020/12/23 09:50:53;;;;;;;9.17;3.80;;;9.80;96.30;;;;;;4993005;28;20436;-76
2020/12/23 09:53:20;;;;;;;7.47;3.47;;;9.80;96.30;;;;;;4992638;28;20491;-76
2020/12/23 09:55:46;;;;;;;7.87;4.00;;;9.80;96.30;;;;;;4993004;28;20463;-76
2020/12/23 09:58:16;;;;;;;6.30;3.33;;;9.80;96.30;;;;;;4992969;28;20925;-76
2020/12/23 10:00:42;;;;;;;3.87;3.07;;;;;;;;;;4992800;28;20527;-76
2020/12/23 10:03:09;;;;;;;5.13;2.40;;;9.60;96.30;;;;;;4991522;28;20500;-76
2020/12/23 10:05:35;;;;;;;4.60;3.77;;;9.60;96.30;;;;;;4992743;28;20428;-76
2020/12/23 10:08:02;;;;;;;26.67;17.07;;;9.60;96.30;;;;;;4983124;28;20429;-78
2020/12/23 10:10:28;;;;;;;34.33;20.83;;;9.70;96.30;;;;;;4972797;28;20541;-78
2020/12/23 10:12:53;;;;;;;42.13;24.73;;;9.80;96.30;;;;;;4954004;28;20830;-78
2020/12/23 10:15:19;;;;;;;56.10;27.73;;;9.80;96.30;;;;;;4954297;28;20812;-77
2020/12/23 10:17:45;;;;;;;23.80;10.50;;;9.90;96.30;;;;;;4965475;28;20435;-78
2020/12/23 10:20:11;;;;;;;52.80;19.50;;;10.00;96.30;;;;;;4972604;28;20182;-79
2020/12/23 10:22:37;;;;;;;73.13;23.07;;;10.10;96.30;;;;;;4971366;28;20182;-77
2020/12/23 10:25:04;;;;;;;71.27;27.50;;;10.20;96.30;;;;;;4973694;28;20197;-76
2020/12/23 10:27:30;;;;;;;44.63;24.83;;;10.10;96.30;;;;;;4972438;28;20417;-77
2020/12/23 10:29:55;;;;;;;32.37;17.17;;;10.10;96.30;;;;;;4972390;28;20418;-77
2020/12/23 10:32:21;;;;;;;39.93;22.40;;;;;;;;;;4973214;28;20209;-77
2020/12/23 10:34:48;;;;;;;8.80;5.77;;;;;;;;;;4974082;28;20182;-77
2020/12/23 10:37:19;;;;;;;17.83;12.50;;;10.10;96.30;;;;;;4973460;28;20405;-77
2020/12/23 10:39:45;;;;;;;4.07;2.60;;;10.10;96.30;;;;;;4973017;28;20491;-79
2020/12/23 10:42:11;;;;;;;3.73;1.40;;;10.10;96.30;;;;;;4984324;28;20460;-79
2020/12/23 10:44:37;;;;;;;7.63;6.37;;;10.10;96.30;;;;;;4975905;28;20413;-79
2020/12/23 10:47:02;;;;;;;7.07;3.30;;;10.10;96.30;;;;;;4990565;28;20665;-79
2020/12/23 10:49:28;;;;;;;2.77;1.93;;;10.10;96.30;;;;;;4974052;28;20189;-79
2020/12/23 10:51:56;;;;;;;6.00;2.50;;;10.10;96.30;;;;;;4973448;28;20654;-79
2020/12/23 10:54:22;;;;;;;1.73;1.63;;;;;;;;;;4961803;28;20767;-79
2020/12/23 10:56:48;;;;;;;1.90;1.10;;;;;;;;;;4970675;28;20426;-78
2020/12/23 10:59:15;;;;;;;1.40;1.00;;;;;;;;;;4956438;28;20849;-79
2020/12/23 11:01:41;;;;;;;1.00;0.80;;;;;;;;;;4959418;28;20215;-78
2020/12/23 11:04:07;;;;;;;9.63;7.27;;;;;;;;;;4958527;29;20538;-78
2020/12/23 11:06:33;;;;;;;9.60;8.60;;;;;;;;;;4959152;28;20840;-78
2020/12/23 11:08:59;;;;;;;2.00;1.80;;;;;;;;;;4958076;29;20505;-78
2020/12/23 11:11:26;;;;;;;1.80;1.20;;;10.80;96.30;;;;;;4958049;29;20662;-78
2020/12/23 11:13:52;;;;;;;1.33;1.10;;;;;;;;;;4991314;23;20517;-78
2020/12/23 11:16:18;;;;;;;1.67;1.10;;;;;;;;;;4974014;28;20419;-78
2020/12/23 11:18:47;;;;;;;1.03;0.73;;;11.10;96.30;;;;;;4958843;28;20403;-78
2020/12/23 11:21:16;;;;;;;1.50;0.97;;;11.20;96.30;;;;;;4958775;28;20459;-79
2020/12/23 11:23:42;;;;;;;1.20;1.03;;;11.30;96.30;;;;;;4957556;28;20913;-79
2020/12/23 11:26:20;;;;;;;21.47;8.97;;;11.40;96.30;;;;;;4957164;28;20419;-77
2020/12/23 11:28:46;;;;;;;5.20;3.80;;;11.50;96.30;;;;;;4956916;28;20418;-77
2020/12/23 11:31:13;;;;;;;5.90;2.97;;;11.50;96.30;;;;;;4957171;28;20414;-77
2020/12/23 11:33:39;;;;;;;3.07;1.87;;;11.60;96.30;;;;;;4956199;29;20297;-78
2020/12/23 11:36:06;;;;;;;31.10;17.47;;;;;;;;;;4955592;28;20574;-77
2020/12/23 11:38:31;;;;;;;19.23;13.20;;;11.70;96.30;;;;;;4956765;28;20418;-77
2020/12/23 11:40:57;;;;;;;3.33;1.43;;;11.60;96.30;;;;;;4956595;29;20437;-78
2020/12/23 11:43:22;;;;;;;27.63;16.37;;;11.60;96.30;;;;;;4956489;28;20195;-79
2020/12/23 11:45:48;;;;;;;2.90;2.03;;;;;;;;;;4959187;28;20183;-78
2020/12/23 11:48:14;;;;;;;27.40;16.33;;;;;;;;;;4958182;28;20682;-80
2020/12/23 11:50:40;;;;;;;1.60;1.13;;;;;;;;;;4958265;28;20418;-79
2020/12/23 11:53:06;;;;;;;25.63;15.33;;;11.30;96.30;;;;;;4957688;28;20473;-78
2020/12/23 11:55:31;;;;;;;1.50;1.03;;;11.20;96.30;;;;;;4958985;28;20185;-79
2020/12/23 11:57:57;;;;;;;1.80;0.70;;;;;;;;;;4959009;29;20635;-78
2020/12/23 12:00:23;;;;;;;0.90;0.80;;;11.00;96.30;;;;;;4956553;28;20898;-79
2020/12/23 12:02:49;;;;;;;0.90;0.60;;;;;;;;;;4957073;29;20415;-80
2020/12/23 12:05:15;;;;;;;1.33;0.70;;;;;;;;;;4956968;28;20183;-79
2020/12/23 12:07:41;;;;;;;0.90;0.73;;;;;;;;;;4957640;28;20778;-79
2020/12/23 12:10:07;;;;;;;0.97;0.70;;;;;;;;;;4957238;28;20190;-78
2020/12/23 12:12:34;;;;;;;1.30;0.80;;;10.90;96.30;;;;;;4955241;28;20179;-78
2020/12/23 12:15:00;;;;;;;1.00;0.70;;;;;;;;;;4956250;28;20434;-77
2020/12/23 12:17:26;;;;;;;1.10;0.70;;;10.90;96.30;;;;;;4956787;28;20411;-77
2020/12/23 12:19:52;;;;;;;1.00;0.70;;;10.90;96.30;;;;;;4955246;28;20505;-80
2020/12/23 12:22:17;;;;;;;1.03;0.73;;;10.90;96.30;;;;;;4955958;28;20899;-79
2020/12/23 12:24:43;;;;;;;0.90;0.73;;;11.00;96.30;;;;;;4956317;29;20663;-80
2020/12/23 12:27:09;;;;;;;1.00;0.70;;;;;;;;;;4956183;29;20270;-79
2020/12/23 12:29:34;;;;;;;3.00;0.80;;;11.00;96.30;;;;;;4951466;28;20198;-81
2020/12/23 12:32:00;;;;;;;1.43;0.90;;;;;;;;;;4939072;29;20195;-82
2020/12/23 12:34:27;;;;;;;1.00;0.80;;;;;;;;;;4958546;28;20228;-81
2020/12/23 12:36:54;;;;;;;1.10;0.70;;;;;;;;;;4958011;29;20209;-82
2020/12/23 12:39:20;;;;;;;2.60;0.70;;;;;;;;;;4958287;29;20434;-81
2020/12/23 12:41:46;;;;;;;1.10;1.00;;;;;;;;;;4957612;28;20874;-81
2020/12/23 12:44:12;;;;;;;1.47;1.37;;;;;;;;;;4959689;28;20195;-81
2020/12/23 12:46:38;;;;;;;3.13;2.60;;;;;;;;;;4959412;28;20183;-81
2020/12/23 12:49:03;;;;;;;1.53;1.17;;;11.30;96.30;;;;;;4957549;28;20183;-81
2020/12/23 12:51:29;;;;;;;2.43;2.10;;;11.30;96.30;;;;;;4957521;28;20474;-81
2020/12/23 12:53:55;;;;;;;3.93;1.63;;;11.30;96.30;;;;;;4959001;28;20229;-81
2020/12/23 12:56:22;;;;;;;2.70;2.10;;;11.20;96.30;;;;;;4959041;29;20590;-81
2020/12/23 12:58:48;;;;;;;2.23;1.27;;;11.30;96.30;;;;;;4960300;28;20453;-82
2020/12/23 13:01:14;;;;;;;2.57;1.53;;;;;;;;;;4959766;28;20446;-83
2020/12/23 13:03:40;;;;;;;1.90;1.63;;;11.40;96.30;;;;;;4959375;28;20293;-81
2020/12/23 13:06:05;;;;;;;2.07;1.00;;;;;;;;;;4956258;28;20451;-82
2020/12/23 13:08:31;;;;;;;1.30;1.10;;;11.30;96.30;;;;;;4942468;29;20647;-82
2020/12/23 13:10:57;;;;;;;1.53;1.10;;;;;;;;;;4957112;28;20187;-81
2020/12/23 13:13:22;;;;;;;3.60;1.27;;;11.20;96.30;;;;;;4957459;28;20269;-82
2020/12/23 13:15:48;;;;;;;2.20;2.00;;;11.20;96.30;;;;;;4958710;28;20782;-82
2020/12/23 13:18:15;;;;;;;1.83;1.37;;;11.20;96.30;;;;;;4958472;28;20167;-81
2020/12/23 13:20:40;;;;;;;3.73;1.40;;;11.20;96.30;;;;;;4954463;28;20179;-81
2020/12/23 13:23:06;;;;;;;7.43;1.90;;;;;;;;;;4951213;28;20470;-81
2020/12/23 13:25:32;;;;;;;6.50;4.60;;;;;;;;;;4960408;28;20265;-81
2020/12/23 13:27:58;;;;;;;7.73;4.57;;;;;;;;;;4958890;28;20411;-82
2020/12/23 13:30:24;;;;;;;3.87;3.00;;;11.00;96.30;;;;;;4958254;28;20262;-82
2020/12/23 13:32:50;;;;;;;3.43;2.60;;;;;;;;;;4958633;29;20466;-82
2020/12/23 13:35:17;;;;;;;11.47;6.30;;;;;;;;;;4959080;28;20240;-81
2020/12/23 13:37:44;;;;;;;3.13;2.00;;;10.90;96.30;;;;;;4957572;28;20183;-82
2020/12/23 13:40:09;;;;;;;2.00;1.57;;;10.80;96.30;;;;;;4958312;28;20411;-82
2020/12/23 13:42:35;;;;;;;3.30;1.77;;;;;;;;;;4949211;29;20427;-75
2020/12/23 13:45:01;;;;;;;3.33;1.40;;;10.60;96.30;;;;;;4935293;29;20175;-75
2020/12/23 13:47:26;;;;;;;3.47;1.50;;;10.60;96.30;;;;;;4934104;29;20419;-75
2020/12/23 13:49:52;;;;;;;2.77;1.50;;;10.60;96.30;;;;;;4947815;29;20205;-77
2020/12/23 13:52:23;;;;;;;3.83;2.70;;;10.60;96.30;;;;;;4952996;29;20236;-76
2020/12/23 13:54:49;;;;;;;2.50;2.07;;;;;;;;;;4950786;29;20202;-77
2020/12/23 13:57:15;;;;;;;3.40;1.77;;;;;;;;;;4953706;28;20418;-77
2020/12/23 13:59:41;;;;;;;13.60;2.80;;;;;;;;;;4954317;28;20497;-77
2020/12/23 14:02:11;;;;;;;3.17;2.50;;;10.50;96.30;;;;;;4953344;28;20579;-78
2020/12/23 14:04:37;;;;;;;3.90;3.10;;;;;;;;;;4935163;29;20203;-77
2020/12/23 14:07:03;;;;;;;4.27;2.57;;;;;;;;;;4941505;29;20941;-77
2020/12/23 14:09:29;;;;;;;3.17;2.40;;;10.40;96.30;;;;;;4952988;28;20450;-77
2020/12/23 14:11:54;;;;;;;6.10;3.53;;;10.40;96.30;;;;;;4952858;28;20689;-77
2020/12/23 14:14:19;;;;;;;5.40;4.80;;;10.40;96.30;;;;;;4953716;29;20257;-77
2020/12/23 14:16:45;;;;;;;6.13;5.53;;;;;;;;;;4954126;29;20179;-78
2020/12/23 14:19:11;;;;;;;3.77;3.40;;;;;;;;;;4954182;28;20171;-77
2020/12/23 14:21:37;;;;;;;4.37;3.47;;;10.30;96.30;;;;;;4953842;28;20318;-77
2020/12/23 14:24:03;;;;;;;5.30;3.50;;;10.20;96.30;;;;;;4953818;29;20199;-77
2020/12/23 14:26:29;;;;;;;4.30;2.70;;;10.20;96.30;;;;;;4954063;28;20266;-77
2020/12/23 14:28:55;;;;;;;2.83;2.43;;;10.20;96.30;;;;;;4954034;29;20573;-77
2020/12/23 14:31:20;;;;;;;3.43;3.13;;;10.20;96.30;;;;;;4953939;29;20954;-77
2020/12/23 14:33:46;;;;;;;2.40;2.20;;;10.20;96.30;;;;;;4953354;28;20218;-77
2020/12/23 14:36:13;;;;;;;3.77;2.40;;;10.10;96.30;;;;;;4957085;28;20318;-77
2020/12/23 14:38:39;;;;;;;2.80;2.30;;;10.10;96.30;;;;;;4952387;28;20179;-77
2020/12/23 14:41:05;;;;;;;5.20;3.17;;;10.10;96.30;;;;;;4946784;29;20505;-77
2020/12/23 14:43:31;;;;;;;7.90;5.80;;;10.10;96.30;;;;;;4957424;28;20577;-77
2020/12/23 14:45:57;;;;;;;3.57;3.23;;;;;;;;;;4961699;28;20197;-78
2020/12/23 14:48:22;;;;;;;6.10;4.10;;;10.00;96.30;;;;;;4957423;28;20182;-78
2020/12/23 14:50:48;;;;;;;8.60;5.60;;;10.00;96.30;;;;;;4956581;29;20429;-78
2020/12/23 14:53:13;;;;;;;6.33;5.50;;;9.90;96.30;;;;;;4956462;28;20217;-78
2020/12/23 14:55:39;;;;;;;6.27;4.83;;;9.90;96.30;;;;;;4957678;28;20246;-79
2020/12/23 14:58:05;;;;;;;7.70;4.43;;;;;;;;;;4957491;29;20222;-78
2020/12/23 15:00:30;;;;;;;7.73;4.00;;;9.90;96.30;;;;;;4957935;28;20701;-79
2020/12/23 15:02:56;;;;;;;4.90;3.83;;;;;;;;;;4958574;28;20215;-79
2020/12/23 15:05:21;;;;;;;5.33;4.07;;;9.90;96.30;;;;;;4957163;28;20251;-79
2020/12/23 15:07:47;;;;;;;4.27;3.50;;;9.90;96.30;;;;;;4958042;29;20244;-78
2020/12/23 15:10:13;;;;;;;6.90;3.50;;;;;;;;;;4957638;28;20179;-79
2020/12/23 15:12:38;;;;;;;4.30;3.40;;;9.90;96.30;;;;;;4957559;28;20183;-79
2020/12/23 15:15:06;;;;;;;7.10;4.73;;;10.00;96.30;;;;;;4959296;28;20187;-79
2020/12/23 15:17:31;;;;;;;3.47;2.73;;;10.00;96.30;;;;;;4958740;28;20190;-78
2020/12/23 15:19:57;;;;;;;5.03;3.00;;;10.00;96.30;;;;;;4958546;29;20407;-78
2020/12/23 15:22:22;;;;;;;9.20;5.87;;;10.00;96.30;;;;;;4958120;28;20519;-79
2020/12/23 15:24:48;;;;;;;7.83;4.30;;;10.00;96.30;;;;;;4956572;28;20209;-78
2020/12/23 15:27:14;;;;;;;3.30;2.97;;;;;;;;;;4957184;29;20210;-77
2020/12/23 15:29:39;;;;;;;8.43;5.23;;;;;;;;;;4956994;28;20187;-77
2020/12/23 15:32:05;;;;;;;9.40;5.30;;;9.90;96.30;;;;;;4954163;28;20417;-77
2020/12/23 15:34:34;;;;;;;5.23;3.10;;;;;;;;;;4956837;29;20213;-77
2020/12/23 15:37:00;;;;;;;3.10;2.47;;;;;;;;;;4957069;28;20179;-77
2020/12/23 15:39:25;;;;;;;4.40;2.90;;;9.80;96.30;;;;;;4957198;28;20772;-77
2020/12/23 15:41:51;;;;;;;2.30;2.00;;;9.70;96.30;;;;;;4955798;28;20210;-77
2020/12/23 15:44:17;;;;;;;2.13;1.90;;;9.80;96.30;;;;;;4957136;28;20290;-77
2020/12/23 15:46:44;;;;;;;1.97;1.60;;;;;;;;;;4957341;28;20187;-78
2020/12/23 15:49:10;;;;;;;1.53;1.43;;;;;;;;;;4959677;28;20422;-79
2020/12/23 15:51:36;;;;;;;2.43;2.23;;;;;;;;;;4958597;28;20458;-78
2020/12/23 15:54:02;;;;;;;5.83;2.00;;;9.90;96.30;;;;;;4956770;28;20214;-79
2020/12/23 15:56:28;;;;;;;2.10;1.90;;;9.90;96.30;;;;;;4954076;29;20430;-78
2020/12/23 15:58:54;;;;;;;2.80;1.87;;;9.80;96.30;;;;;;4955745;28;20985;-80
2020/12/23 16:01:19;;;;;;;6.30;3.30;;;9.80;96.30;;;;;;4956911;28;20206;-77
2020/12/23 16:03:45;;;;;;;5.43;3.53;;;;;;;;;;4956474;28;20199;-78
2020/12/23 16:06:11;;;;;;;19.67;14.20;;;;;;;;;;4957265;28;20171;-77
2020/12/23 16:08:36;;;;;;;16.37;9.97;;;9.80;96.30;;;;;;4957982;28;20661;-80
2020/12/23 16:11:03;;;;;;;5.83;5.23;;;;;;;;;;4955851;28;20545;-78
2020/12/23 16:13:29;;;;;;;2.00;1.80;;;9.80;96.30;;;;;;4954861;28;20216;-77
2020/12/23 16:15:56;;;;;;;2.40;1.83;;;;;;;;;;4956425;28;20502;-78
2020/12/23 16:18:23;;;;;;;2.20;2.00;;;9.80;96.30;;;;;;4955725;28;20411;-78
2020/12/23 16:20:49;;;;;;;2.13;1.83;;;9.70;96.30;;;;;;4956609;28;20849;-80
2020/12/23 16:23:15;;;;;;;2.40;2.20;;;9.70;96.30;;;;;;4956676;29;20480;-78
2020/12/23 16:25:41;;;;;;;2.60;2.40;;;9.70;96.30;;;;;;4957183;28;20418;-78
2020/12/23 16:28:07;;;;;;;3.00;2.70;;;;;;;;;;4957057;29;20462;-78
2020/12/23 16:30:34;;;;;;;9.60;5.63;;;9.70;96.30;;;;;;4956869;28;20206;-78
2020/12/23 16:33:00;;;;;;;17.50;12.67;;;9.70;96.30;;;;;;4956502;28;20545;-79
2020/12/23 16:35:25;;;;;;;3.17;2.87;;;9.70;96.30;;;;;;4957482;28;20861;-79
2020/12/23 16:37:51;;;;;;;3.37;2.57;;;9.60;96.30;;;;;;4956738;28;20536;-77
2020/12/23 16:40:17;;;;;;;1.90;1.80;;;9.60;96.30;;;;;;4954898;29;20176;-76
2020/12/23 16:42:43;;;;;;;1.90;1.80;;;9.70;96.30;;;;;;4955895;29;20411;-76
2020/12/23 16:45:09;;;;;;;6.47;4.50;;;;;;;;;;4956087;28;20171;-77
2020/12/23 16:47:34;;;;;;;10.60;2.90;;;;;;;;;;4956071;28;20179;-76
2020/12/23 16:50:00;;;;;;;6.10;3.33;;;;;;;;;;4955916;28;20469;-76
2020/12/23 16:52:27;;;;;;;5.60;3.30;;;;;;;;;;4955857;28;20175;-76
2020/12/23 16:54:53;;;;;;;4.37;3.40;;;;;;;;;;4955867;28;20466;-76
2020/12/23 16:57:18;;;;;;;6.43;3.57;;;9.70;96.30;;;;;;4955394;28;20426;-76
2020/12/23 16:59:44;;;;;;;5.37;2.87;;;9.70;96.30;;;;;;4956304;28;20419;-77
2020/12/23 17:02:10;;;;;;;4.57;3.50;;;;;;;;;;4953966;29;20179;-79
2020/12/23 17:04:39;;;;;;;9.17;3.43;;;;;;;;;;4955830;28;20199;-75
2020/12/23 17:07:04;;;;;;;4.10;2.63;;;9.80;96.30;;;;;;4955990;28;20518;-75
2020/12/23 17:09:30;;;;;;;3.03;1.73;;;9.90;96.30;;;;;;4955726;29;20915;-76
2020/12/23 17:12:01;;;;;;;2.33;1.10;;;9.90;96.30;;;;;;4955498;28;20662;-76
2020/12/23 17:14:27;;;;;;;1.60;1.50;;;;;;;;;;5014636;23;20225;-73